sensor_id;sensor_type;location;lat;lon;timestamp;pressure;altitude;pressure_sealevel;temperature;humidity
56402;BME280;42299;35.160;26.100;2022-12-07T00:01:10;101541.47;;;12.82;100.00
56402;BME280;42299;35.160;26.100;2022-12-07T00:02:32;101533.47;;;12.78;100.00
56402;BME280;42299;35.160;26.100;2022-12-07T00:03:56;101534.34;;;12.77;100.00
56402;BME280;42299;35.160;26.100;2022-12-07T00:05:25;101531.66;;;12.76;100.00
56402;BME280;42299;35.160;26.100;2022-12-07T00:06:52;101525.47;;;12.75;100.00
56402;BME280;42299;35.160;26.100;2022-12-07T00:08:15;101528.97;;;12.74;100.00
56402;BME280;42299;35.160;26.100;2022-12-07T00:09:36;101533.41;;;12.75;100.00
56402;BME280;42299;35.160;26.100;2022-12-07T00:11:01;101525.41;;;12.74;100.00
56402;BME280;42299;35.160;26.100;2022-12-07T00:12:23;101518.38;;;12.74;100.00
56402;BME280;42299;35.160;26.100;2022-12-07T00:13:50;101526.31;;;12.74;100.00
56402;BME280;42299;35.160;26.100;2022-12-07T00:15:12;101522.75;;;12.72;100.00
56402;BME280;42299;35.160;26.100;2022-12-07T00:16:35;101524.47;;;12.70;100.00
56402;BME280;42299;35.160;26.100;2022-12-07T00:17:57;101527.13;;;12.70;100.00
56402;BME280;42299;35.160;26.100;2022-12-07T00:19:19;101520.03;;;12.69;100.00
56402;BME280;42299;35.160;26.100;2022-12-07T00:20:41;101520.97;;;12.71;100.00
56402;BME280;42299;35.160;26.100;2022-12-07T00:22:03;101520.09;;;12.71;100.00
56402;BME280;42299;35.160;26.100;2022-12-07T00:23:26;101525.41;;;12.72;100.00
56402;BME280;42299;35.160;26.100;2022-12-07T00:24:50;101527.16;;;12.73;100.00
56402;BME280;42299;35.160;26.100;2022-12-07T00:26:14;101523.66;;;12.74;100.00
56402;BME280;42299;35.160;26.100;2022-12-07T00:27:37;101525.47;;;12.75;100.00
56402;BME280;42299;35.160;26.100;2022-12-07T00:29:01;101518.38;;;12.74;100.00
56402;BME280;42299;35.160;26.100;2022-12-07T00:30:25;101514.81;;;12.74;100.00
56402;BME280;42299;35.160;26.100;2022-12-07T00:31:46;101513.06;;;12.73;100.00
56402;BME280;42299;35.160;26.100;2022-12-07T00:33:09;101518.31;;;12.71;100.00
56402;BME280;42299;35.160;26.100;2022-12-07T00:34:30;101520.94;;;12.70;100.00
56402;BME280;42299;35.160;26.100;2022-12-07T00:35:55;101524.47;;;12.70;100.00
56402;BME280;42299;35.160;26.100;2022-12-07T00:37:16;101526.28;;;12.71;100.00
56402;BME280;42299;35.160;26.100;2022-12-07T00:38:39;101528.97;;;12.74;100.00
56402;BME280;42299;35.160;26.100;2022-12-07T00:40:01;101528.13;;;12.77;100.00
56402;BME280;42299;35.160;26.100;2022-12-07T00:41:25;101531.72;;;12.79;100.00
56402;BME280;42299;35.160;26.100;2022-12-07T00:42:46;101537.91;;;12.81;100.00
56402;BME280;42299;35.160;26.100;2022-12-07T00:44:10;101536.16;;;12.82;100.00
56402;BME280;42299;35.160;26.100;2022-12-07T00:45:33;101537.97;;;12.83;100.00
56402;BME280;42299;35.160;26.100;2022-12-07T00:46:55;101544.97;;;12.81;100.00
56402;BME280;42299;35.160;26.100;2022-12-07T00:48:18;101547.63;;;12.81;100.00
56402;BME280;42299;35.160;26.100;2022-12-07T00:49:39;101543.22;;;12.80;100.00
56402;BME280;42299;35.160;26.100;2022-12-07T00:51:02;101544.94;;;12.77;100.00
56402;BME280;42299;35.160;26.100;2022-12-07T00:52:24;101542.31;;;12.79;100.00
56402;BME280;42299;35.160;26.100;2022-12-07T00:53:46;101539.63;;;12.77;100.00
56402;BME280;42299;35.160;26.100;2022-12-07T00:55:09;101535.19;;;12.76;100.00
56402;BME280;42299;35.160;26.100;2022-12-07T00:56:31;101528.97;;;12.74;100.00
56402;BME280;42299;35.160;26.100;2022-12-07T00:57:53;101531.56;;;12.71;100.00
56402;BME280;42299;35.160;26.100;2022-12-07T00:59:16;101528.84;;;12.68;100.00
56402;BME280;42299;35.160;26.100;2022-12-07T01:00:40;101526.13;;;12.64;100.00
56402;BME280;42299;35.160;26.100;2022-12-07T01:02:02;101526.03;;;12.59;100.00
56402;BME280;42299;35.160;26.100;2022-12-07T01:03:24;101523.34;;;12.58;100.00
56402;BME280;42299;35.160;26.100;2022-12-07T01:04:46;101523.31;;;12.56;100.00
56402;BME280;42299;35.160;26.100;2022-12-07T01:06:08;101533.06;;;12.57;100.00
56402;BME280;42299;35.160;26.100;2022-12-07T01:07:29;101539.22;;;12.56;100.00
56402;BME280;42299;35.160;26.100;2022-12-07T01:08:52;101539.22;;;12.56;100.00
56402;BME280;42299;35.160;26.100;2022-12-07T01:10:14;101533.00;;;12.56;100.00
56402;BME280;42299;35.160;26.100;2022-12-07T01:11:37;101536.53;;;12.55;100.00
56402;BME280;42299;35.160;26.100;2022-12-07T01:12:59;101540.94;;;12.54;100.00
56402;BME280;42299;35.160;26.100;2022-12-07T01:14:22;101544.50;;;12.56;100.00
56402;BME280;42299;35.160;26.100;2022-12-07T01:15:44;101549.81;;;12.56;100.00
56402;BME280;42299;35.160;26.100;2022-12-07T01:17:06;101554.28;;;12.59;100.00
56402;BME280;42299;35.160;26.100;2022-12-07T01:18:29;101544.59;;;12.61;100.00
56402;BME280;42299;35.160;26.100;2022-12-07T01:19:52;101541.97;;;12.62;100.00
56402;BME280;42299;35.160;26.100;2022-12-07T01:21:16;101538.47;;;12.63;100.00
56402;BME280;42299;35.160;26.100;2022-12-07T01:22:38;101532.28;;;12.63;100.00
56402;BME280;42299;35.160;26.100;2022-12-07T01:24:01;101542.91;;;12.64;100.00
56402;BME280;42299;35.160;26.100;2022-12-07T01:25:22;101530.44;;;12.60;100.00
56402;BME280;42299;35.160;26.100;2022-12-07T01:26:44;101537.56;;;12.63;100.00
56402;BME280;42299;35.160;26.100;2022-12-07T01:28:07;101531.47;;;12.65;100.00
56402;BME280;42299;35.160;26.100;2022-12-07T01:29:31;101529.75;;;12.69;100.00
56402;BME280;42299;35.160;26.100;2022-12-07T01:30:57;101530.69;;;12.71;100.00
56402;BME280;42299;35.160;26.100;2022-12-07T01:32:19;101530.72;;;12.72;100.00
56402;BME280;42299;35.160;26.100;2022-12-07T01:33:43;101535.16;;;12.75;100.00
56402;BME280;42299;35.160;26.100;2022-12-07T01:35:06;101542.25;;;12.76;100.00
56402;BME280;42299;35.160;26.100;2022-12-07T01:36:29;101533.47;;;12.78;100.00
56402;BME280;42299;35.160;26.100;2022-12-07T01:37:52;101539.66;;;12.79;100.00
56402;BME280;42299;35.160;26.100;2022-12-07T01:39:15;101535.28;;;12.81;100.00
56402;BME280;42299;35.160;26.100;2022-12-07T01:40:37;101543.25;;;12.83;100.00
56402;BME280;42299;35.160;26.100;2022-12-07T01:41:59;101536.19;;;12.83;100.00
56402;BME280;42299;35.160;26.100;2022-12-07T01:43:24;101529.19;;;12.85;100.00
56402;BME280;42299;35.160;26.100;2022-12-07T01:45:25;101531.84;;;12.85;100.00
56402;BME280;42299;35.160;26.100;2022-12-07T01:46:59;101526.44;;;12.81;100.00
56402;BME280;42299;35.160;26.100;2022-12-07T01:48:25;101526.44;;;12.81;100.00
56402;BME280;42299;35.160;26.100;2022-12-07T01:49:48;101527.25;;;12.76;100.00
56402;BME280;42299;35.160;26.100;2022-12-07T01:51:13;101519.25;;;12.75;100.00
56402;BME280;42299;35.160;26.100;2022-12-07T01:52:36;101526.31;;;12.73;100.00
56402;BME280;42299;35.160;26.100;2022-12-07T01:54:00;101517.44;;;12.71;100.00
56402;BME280;42299;35.160;26.100;2022-12-07T01:55:23;101520.03;;;12.69;100.00
56402;BME280;42299;35.160;26.100;2022-12-07T01:56:49;101511.25;;;12.70;100.00
56402;BME280;42299;35.160;26.100;2022-12-07T01:58:14;101516.53;;;12.70;100.00
56402;BME280;42299;35.160;26.100;2022-12-07T01:59:37;101512.06;;;12.68;100.00
56402;BME280;42299;35.160;26.100;2022-12-07T02:01:04;101510.28;;;12.67;100.00
56402;BME280;42299;35.160;26.100;2022-12-07T02:02:30;101506.75;;;12.66;100.00
56402;BME280;42299;35.160;26.100;2022-12-07T02:03:53;101504.97;;;12.65;100.00
56402;BME280;42299;35.160;26.100;2022-12-07T02:05:17;101510.28;;;12.67;100.00
56402;BME280;42299;35.160;26.100;2022-12-07T02:06:41;101501.47;;;12.68;100.00
56402;BME280;42299;35.160;26.100;2022-12-07T02:08:05;101508.50;;;12.67;100.00
56402;BME280;42299;35.160;26.100;2022-12-07T02:09:26;101502.31;;;12.67;100.00
56402;BME280;42299;35.160;26.100;2022-12-07T02:10:49;101502.31;;;12.65;100.00
56402;BME280;42299;35.160;26.100;2022-12-07T02:12:10;101502.28;;;12.64;100.00
56402;BME280;42299;35.160;26.100;2022-12-07T02:13:34;101507.63;;;12.65;100.00
56402;BME280;42299;35.160;26.100;2022-12-07T02:14:56;101497.84;;;12.63;100.00
56402;BME280;42299;35.160;26.100;2022-12-07T02:16:36;101488.06;;;12.60;100.00
56402;BME280;42299;35.160;26.100;2022-12-07T02:18:07;101491.59;;;12.59;100.00
56402;BME280;42299;35.160;26.100;2022-12-07T02:19:57;101494.22;;;12.58;100.00
56402;BME280;42299;35.160;26.100;2022-12-07T02:21:29;101492.44;;;12.57;100.00
56402;BME280;42299;35.160;26.100;2022-12-07T02:23:32;101483.56;;;12.55;100.00
56402;BME280;42299;35.160;26.100;2022-12-07T02:25:07;101481.81;;;12.55;100.00
56402;BME280;42299;35.160;26.100;2022-12-07T02:28:34;101472.97;;;12.55;100.00
56402;BME280;42299;35.160;26.100;2022-12-07T02:30:01;101474.75;;;12.56;100.00
56402;BME280;42299;35.160;26.100;2022-12-07T02:31:23;101471.22;;;12.55;100.00
56402;BME280;42299;35.160;26.100;2022-12-07T02:32:55;101469.38;;;12.51;100.00
56402;BME280;42299;35.160;26.100;2022-12-07T02:34:24;101479.91;;;12.48;100.00
56402;BME280;42299;35.160;26.100;2022-12-07T02:35:52;101469.31;;;12.48;100.00
56402;BME280;42299;35.160;26.100;2022-12-07T02:37:24;101475.44;;;12.47;100.00
56402;BME280;42299;35.160;26.100;2022-12-07T02:38:54;101467.50;;;12.47;100.00
56402;BME280;42299;35.160;26.100;2022-12-07T02:40:20;101469.31;;;12.48;100.00
56402;BME280;42299;35.160;26.100;2022-12-07T02:41:47;101474.59;;;12.48;100.00
56402;BME280;42299;35.160;26.100;2022-12-07T02:43:16;101468.41;;;12.48;100.00
56402;BME280;42299;35.160;26.100;2022-12-07T02:44:40;101473.69;;;12.48;100.00
56402;BME280;42299;35.160;26.100;2022-12-07T02:46:07;101468.44;;;12.49;100.00
56402;BME280;42299;35.160;26.100;2022-12-07T02:47:31;101460.50;;;12.49;100.00
56402;BME280;42299;35.160;26.100;2022-12-07T02:48:55;101463.16;;;12.49;100.00
56402;BME280;42299;35.160;26.100;2022-12-07T02:50:20;101464.94;;;12.50;100.00
56402;BME280;42299;35.160;26.100;2022-12-07T02:51:44;101460.56;;;12.52;100.00
56402;BME280;42299;35.160;26.100;2022-12-07T02:53:31;101462.38;;;12.55;100.00
56402;BME280;42299;35.160;26.100;2022-12-07T02:54:54;101462.41;;;12.56;100.00
56402;BME280;42299;35.160;26.100;2022-12-07T02:56:23;101472.13;;;12.57;100.00
56402;BME280;42299;35.160;26.100;2022-12-07T02:58:12;101468.63;;;12.58;100.00
56402;BME280;42299;35.160;26.100;2022-12-07T02:59:47;101465.06;;;12.56;100.00
56402;BME280;42299;35.160;26.100;2022-12-07T03:01:22;101458.81;;;12.54;100.00
56402;BME280;42299;35.160;26.100;2022-12-07T03:02:53;101459.72;;;12.53;100.00
56402;BME280;42299;35.160;26.100;2022-12-07T03:04:26;101457.88;;;12.51;100.00
56402;BME280;42299;35.160;26.100;2022-12-07T03:06:16;101455.09;;;12.43;100.00
56402;BME280;42299;35.160;26.100;2022-12-07T03:07:44;101454.00;;;12.32;100.00
56402;BME280;42299;35.160;26.100;2022-12-07T03:09:15;101460.19;;;12.32;100.00
56402;BME280;42299;35.160;26.100;2022-12-07T03:10:48;101453.06;;;12.30;100.00
56402;BME280;42299;35.160;26.100;2022-12-07T03:12:16;101456.59;;;12.30;100.00
56402;BME280;42299;35.160;26.100;2022-12-07T03:13:47;101449.53;;;12.29;100.00
56402;BME280;42299;35.160;26.100;2022-12-07T03:15:15;101454.78;;;12.28;100.00
56402;BME280;42299;35.160;26.100;2022-12-07T03:16:42;101457.41;;;12.26;100.00
56402;BME280;42299;35.160;26.100;2022-12-07T03:18:09;101459.19;;;12.26;100.00
56402;BME280;42299;35.160;26.100;2022-12-07T03:19:33;101457.38;;;12.25;100.00
56402;BME280;42299;35.160;26.100;2022-12-07T03:20:58;101459.13;;;12.24;100.00
56402;BME280;42299;35.160;26.100;2022-12-07T03:22:21;101462.66;;;12.23;100.00
56402;BME280;42299;35.160;26.100;2022-12-07T03:23:50;101459.94;;;12.22;100.00
56402;BME280;42299;35.160;26.100;2022-12-07T03:25:15;101454.63;;;12.19;100.00
56402;BME280;42299;35.160;26.100;2022-12-07T03:26:40;101459.91;;;12.19;100.00
56402;BME280;42299;35.160;26.100;2022-12-07T03:28:05;101459.03;;;12.18;100.00
56402;BME280;42299;35.160;26.100;2022-12-07T03:29:31;101454.59;;;12.17;100.00
56402;BME280;42299;35.160;26.100;2022-12-07T03:30:59;101457.22;;;12.17;100.00
56402;BME280;42299;35.160;26.100;2022-12-07T03:32:27;101457.25;;;12.19;100.00
56402;BME280;42299;35.160;26.100;2022-12-07T03:33:57;101458.09;;;12.16;100.00
56402;BME280;42299;35.160;26.100;2022-12-07T03:35:24;101448.34;;;12.15;100.00
56402;BME280;42299;35.160;26.100;2022-12-07T03:36:52;101445.69;;;12.14;100.00
56402;BME280;42299;35.160;26.100;2022-12-07T03:38:20;101450.06;;;12.12;100.00
56402;BME280;42299;35.160;26.100;2022-12-07T03:39:49;101454.41;;;12.10;100.00
56402;BME280;42299;35.160;26.100;2022-12-07T03:41:18;101450.84;;;12.06;100.00
56402;BME280;42299;35.160;26.100;2022-12-07T03:42:41;101449.84;;;12.03;100.00
56402;BME280;42299;35.160;26.100;2022-12-07T03:44:02;101451.47;;;11.94;100.00
56402;BME280;42299;35.160;26.100;2022-12-07T03:45:26;101453.06;;;11.86;100.00
56402;BME280;42299;35.160;26.100;2022-12-07T03:46:55;101453.06;;;11.86;100.00
56402;BME280;42299;35.160;26.100;2022-12-07T03:48:27;101453.03;;;11.85;100.00
56402;BME280;42299;35.160;26.100;2022-12-07T03:49:55;101448.59;;;11.84;100.00
56402;BME280;42299;35.160;26.100;2022-12-07T03:51:23;101452.13;;;11.84;100.00
56402;BME280;42299;35.160;26.100;2022-12-07T03:52:53;101444.19;;;11.84;100.00
56402;BME280;42299;35.160;26.100;2022-12-07T03:54:19;101447.66;;;11.82;100.00
56402;BME280;42299;35.160;26.100;2022-12-07T03:55:45;101442.28;;;11.77;100.00
56402;BME280;42299;35.160;26.100;2022-12-07T03:57:09;101443.97;;;11.75;100.00
56402;BME280;42299;35.160;26.100;2022-12-07T03:58:34;101434.28;;;11.74;100.00
56402;BME280;42299;35.160;26.100;2022-12-07T03:59:57;101431.53;;;11.71;100.00
56402;BME280;42299;35.160;26.100;2022-12-07T04:01:22;101437.75;;;11.73;100.00
56402;BME280;42299;35.160;26.100;2022-12-07T04:02:43;101436.03;;;11.74;100.00
56402;BME280;42299;35.160;26.100;2022-12-07T04:04:07;101442.22;;;11.76;100.00
56402;BME280;42299;35.160;26.100;2022-12-07T04:05:30;101444.88;;;11.76;100.00
56402;BME280;42299;35.160;26.100;2022-12-07T04:06:51;101442.28;;;11.77;100.00
56402;BME280;42299;35.160;26.100;2022-12-07T04:08:14;101444.97;;;11.79;100.00
56402;BME280;42299;35.160;26.100;2022-12-07T04:09:36;101445.00;;;11.82;100.00
56402;BME280;42299;35.160;26.100;2022-12-07T04:10:57;101446.78;;;11.83;100.00
56402;BME280;42299;35.160;26.100;2022-12-07T04:12:20;101449.53;;;11.86;100.00
56402;BME280;42299;35.160;26.100;2022-12-07T04:13:41;101450.38;;;11.85;100.00
56402;BME280;42299;35.160;26.100;2022-12-07T04:15:21;101443.25;;;11.82;100.00
56402;BME280;42299;35.160;26.100;2022-12-07T04:16:44;101437.88;;;11.78;100.00
56402;BME280;42299;35.160;26.100;2022-12-07T04:18:06;101442.16;;;11.73;100.00
56402;BME280;42299;35.160;26.100;2022-12-07T04:19:31;101435.09;;;11.73;100.00
56402;BME280;42299;35.160;26.100;2022-12-07T04:20:53;101435.19;;;11.75;100.00
56402;BME280;42299;35.160;26.100;2022-12-07T04:22:16;101433.47;;;11.78;100.00
56402;BME280;42299;35.160;26.100;2022-12-07T04:23:38;101435.34;;;11.84;100.00
56402;BME280;42299;35.160;26.100;2022-12-07T04:24:59;101433.69;;;11.87;100.00
56402;BME280;42299;35.160;26.100;2022-12-07T04:26:22;101430.16;;;11.88;100.00
56402;BME280;42299;35.160;26.100;2022-12-07T04:27:44;101433.69;;;11.89;100.00
56402;BME280;42299;35.160;26.100;2022-12-07T04:29:07;101430.22;;;11.91;100.00
56402;BME280;42299;35.160;26.100;2022-12-07T04:30:29;101432.91;;;11.93;100.00
56402;BME280;42299;35.160;26.100;2022-12-07T04:31:52;101432.03;;;11.92;100.00
56402;BME280;42299;35.160;26.100;2022-12-07T04:33:13;101427.63;;;11.93;100.00
56402;BME280;42299;35.160;26.100;2022-12-07T04:34:37;101429.44;;;11.95;100.00
56402;BME280;42299;35.160;26.100;2022-12-07T04:35:59;101432.06;;;11.95;100.00
56402;BME280;42299;35.160;26.100;2022-12-07T04:37:22;101440.91;;;11.94;100.00
56402;BME280;42299;35.160;26.100;2022-12-07T04:38:45;101444.41;;;11.93;100.00
56402;BME280;42299;35.160;26.100;2022-12-07T04:40:08;101440.81;;;11.91;100.00
56402;BME280;42299;35.160;26.100;2022-12-07T04:41:32;101443.50;;;11.93;100.00
56402;BME280;42299;35.160;26.100;2022-12-07T04:42:53;101443.38;;;11.88;100.00
56402;BME280;42299;35.160;26.100;2022-12-07T04:44:16;101449.56;;;11.89;100.00
56402;BME280;42299;35.160;26.100;2022-12-07T04:45:39;101438.16;;;11.91;100.00
56402;BME280;42299;35.160;26.100;2022-12-07T04:47:01;101440.84;;;11.93;100.00
56402;BME280;42299;35.160;26.100;2022-12-07T04:48:22;101446.19;;;11.94;100.00
56402;BME280;42299;35.160;26.100;2022-12-07T04:49:47;101443.53;;;11.94;100.00
56402;BME280;42299;35.160;26.100;2022-12-07T04:51:09;101446.16;;;11.93;100.00
56402;BME280;42299;35.160;26.100;2022-12-07T04:52:32;101452.34;;;11.93;100.00
56402;BME280;42299;35.160;26.100;2022-12-07T04:53:55;101436.47;;;11.95;100.00
56402;BME280;42299;35.160;26.100;2022-12-07T04:55:18;101437.38;;;11.95;100.00
56402;BME280;42299;35.160;26.100;2022-12-07T04:56:40;101440.94;;;11.97;100.00
56402;BME280;42299;35.160;26.100;2022-12-07T04:58:01;101442.72;;;11.98;100.00
56402;BME280;42299;35.160;26.100;2022-12-07T04:59:24;101443.66;;;12.01;100.00
56402;BME280;42299;35.160;26.100;2022-12-07T05:00:45;101441.91;;;12.01;100.00
56402;BME280;42299;35.160;26.100;2022-12-07T05:02:08;101441.06;;;12.04;100.00
56402;BME280;42299;35.160;26.100;2022-12-07T05:03:29;101446.34;;;12.04;100.00
56402;BME280;42299;35.160;26.100;2022-12-07T05:04:54;101441.06;;;12.04;100.00
56402;BME280;42299;35.160;26.100;2022-12-07T05:06:16;101446.34;;;12.04;100.00
56402;BME280;42299;35.160;26.100;2022-12-07T05:07:39;101449.00;;;12.04;100.00
56402;BME280;42299;35.160;26.100;2022-12-07T05:09:01;101451.66;;;12.04;100.00
56402;BME280;42299;35.160;26.100;2022-12-07T05:10:23;101448.97;;;12.02;100.00
56402;BME280;42299;35.160;26.100;2022-12-07T05:11:46;101452.50;;;12.03;100.00
56402;BME280;42299;35.160;26.100;2022-12-07T05:13:08;101452.53;;;12.04;100.00
56402;BME280;42299;35.160;26.100;2022-12-07T05:14:30;101451.72;;;12.07;100.00
56402;BME280;42299;35.160;26.100;2022-12-07T05:15:53;101452.63;;;12.09;100.00
56402;BME280;42299;35.160;26.100;2022-12-07T05:17:15;101456.25;;;12.12;100.00
56402;BME280;42299;35.160;26.100;2022-12-07T05:18:37;101455.44;;;12.16;100.00
56402;BME280;42299;35.160;26.100;2022-12-07T05:20:00;101451.03;;;12.17;100.00
56402;BME280;42299;35.160;26.100;2022-12-07T05:21:23;101449.31;;;12.19;100.00
56402;BME280;42299;35.160;26.100;2022-12-07T05:22:44;101459.94;;;12.22;100.00
56402;BME280;42299;35.160;26.100;2022-12-07T05:24:08;101464.44;;;12.24;100.00
56402;BME280;42299;35.160;26.100;2022-12-07T05:25:31;101460.06;;;12.28;100.00
56402;BME280;42299;35.160;26.100;2022-12-07T05:26:54;101459.22;;;12.29;100.00
56402;BME280;42299;35.160;26.100;2022-12-07T05:28:15;101466.31;;;12.30;100.00
56402;BME280;42299;35.160;26.100;2022-12-07T05:29:38;101463.69;;;12.31;100.00
56402;BME280;42299;35.160;26.100;2022-12-07T05:30:59;101466.34;;;12.31;100.00
56402;BME280;42299;35.160;26.100;2022-12-07T05:32:21;101464.59;;;12.32;100.00
56402;BME280;42299;35.160;26.100;2022-12-07T05:33:44;101465.47;;;12.32;100.00
56402;BME280;42299;35.160;26.100;2022-12-07T05:35:09;101460.19;;;12.34;100.00
56402;BME280;42299;35.160;26.100;2022-12-07T05:36:31;101454.00;;;12.32;100.00
56402;BME280;42299;35.160;26.100;2022-12-07T05:37:53;101458.41;;;12.31;100.00
56402;BME280;42299;35.160;26.100;2022-12-07T05:39:15;101460.97;;;12.28;100.00
56402;BME280;42299;35.160;26.100;2022-12-07T05:40:37;101452.13;;;12.28;100.00
56402;BME280;42299;35.160;26.100;2022-12-07T05:42:00;101456.53;;;12.27;100.00
56402;BME280;42299;35.160;26.100;2022-12-07T05:43:33;101449.47;;;12.26;100.00
56402;BME280;42299;35.160;26.100;2022-12-07T05:44:56;101448.72;;;12.32;100.00
56402;BME280;42299;35.160;26.100;2022-12-07T05:46:19;101447.97;;;12.39;100.00
56402;BME280;42299;35.160;26.100;2022-12-07T05:47:41;101454.22;;;12.44;100.00
56402;BME280;42299;35.160;26.100;2022-12-07T05:49:04;101458.72;;;12.48;100.00
56402;BME280;42299;35.160;26.100;2022-12-07T05:50:27;101459.72;;;12.53;100.00
56402;BME280;42299;35.160;26.100;2022-12-07T05:51:54;101460.66;;;12.57;100.00
56402;BME280;42299;35.160;26.100;2022-12-07T05:53:17;101459.81;;;12.59;100.00
56402;BME280;42299;35.160;26.100;2022-12-07T05:54:40;101466.06;;;12.63;100.00
56402;BME280;42299;35.160;26.100;2022-12-07T05:56:03;101462.59;;;12.67;100.00
56402;BME280;42299;35.160;26.100;2022-12-07T05:57:24;101463.56;;;12.70;100.00
56402;BME280;42299;35.160;26.100;2022-12-07T05:58:47;101460.06;;;12.74;100.00
56402;BME280;42299;35.160;26.100;2022-12-07T06:00:26;101456.59;;;12.77;100.00
56402;BME280;42299;35.160;26.100;2022-12-07T06:01:47;101464.63;;;12.82;100.00
56402;BME280;42299;35.160;26.100;2022-12-07T06:03:09;101457.66;;;12.87;100.00
56402;BME280;42299;35.160;26.100;2022-12-07T06:04:33;101462.16;;;12.91;100.00
56402;BME280;42299;35.160;26.100;2022-12-07T06:05:57;101465.72;;;12.93;100.00
56402;BME280;42299;35.160;26.100;2022-12-07T06:07:20;101468.38;;;12.94;100.00
56402;BME280;42299;35.160;26.100;2022-12-07T06:08:42;101465.84;;;13.00;100.00
56402;BME280;42299;35.160;26.100;2022-12-07T06:10:04;101460.72;;;13.11;100.00
56402;BME280;42299;35.160;26.100;2022-12-07T06:11:27;101461.88;;;13.25;100.00
56402;BME280;42299;35.160;26.100;2022-12-07T06:13:06;101463.06;;;13.44;100.00
56402;BME280;42299;35.160;26.100;2022-12-07T06:14:27;101465.91;;;13.59;100.00
56402;BME280;42299;35.160;26.100;2022-12-07T06:15:50;101475.91;;;13.77;100.00
56402;BME280;42299;35.160;26.100;2022-12-07T06:17:13;101467.25;;;13.91;100.00
56402;BME280;42299;35.160;26.100;2022-12-07T06:18:36;101471.88;;;14.06;100.00
56402;BME280;42299;35.160;26.100;2022-12-07T06:19:57;101477.38;;;14.21;100.00
56402;BME280;42299;35.160;26.100;2022-12-07T06:21:21;101468.72;;;14.36;100.00
56402;BME280;42299;35.160;26.100;2022-12-07T06:22:43;101474.22;;;14.50;100.00
56402;BME280;42299;35.160;26.100;2022-12-07T06:24:06;101473.47;;;14.61;100.00
56402;BME280;42299;35.160;26.100;2022-12-07T06:25:27;101467.38;;;14.73;100.00
56402;BME280;42299;35.160;26.100;2022-12-07T06:26:50;101469.25;;;14.86;100.00
56402;BME280;42299;35.160;26.100;2022-12-07T06:28:12;101474.66;;;14.97;100.00
56402;BME280;42299;35.160;26.100;2022-12-07T06:29:34;101473.00;;;15.06;100.00
56402;BME280;42299;35.160;26.100;2022-12-07T06:30:57;101472.19;;;15.16;100.00
56402;BME280;42299;35.160;26.100;2022-12-07T06:32:20;101470.53;;;15.28;100.00
56402;BME280;42299;35.160;26.100;2022-12-07T06:33:42;101471.47;;;15.39;100.00
56402;BME280;42299;35.160;26.100;2022-12-07T06:35:05;101476.00;;;15.49;100.00
56402;BME280;42299;35.160;26.100;2022-12-07T06:36:29;101474.34;;;15.60;100.00
56402;BME280;42299;35.160;26.100;2022-12-07T06:37:51;101468.19;;;15.72;100.00
56402;BME280;42299;35.160;26.100;2022-12-07T06:39:14;101465.56;;;15.82;100.00
56402;BME280;42299;35.160;26.100;2022-12-07T06:40:36;101472.75;;;15.95;100.00
56402;BME280;42299;35.160;26.100;2022-12-07T06:41:59;101463.06;;;16.10;100.00
56402;BME280;42299;35.160;26.100;2022-12-07T06:43:21;101463.97;;;16.22;100.00
56402;BME280;42299;35.160;26.100;2022-12-07T06:44:44;101464.94;;;16.37;100.00
56402;BME280;42299;35.160;26.100;2022-12-07T06:46:06;101464.06;;;16.50;100.00
56402;BME280;42299;35.160;26.100;2022-12-07T06:47:29;101462.38;;;16.62;100.00
56402;BME280;42299;35.160;26.100;2022-12-07T06:48:51;101452.59;;;16.75;100.00
56402;BME280;42299;35.160;26.100;2022-12-07T06:50:13;101463.28;;;16.87;100.00
56402;BME280;42299;35.160;26.100;2022-12-07T06:51:37;101454.41;;;16.97;100.00
56402;BME280;42299;35.160;26.100;2022-12-07T06:53:02;101452.63;;;17.08;100.00
56402;BME280;42299;35.160;26.100;2022-12-07T06:54:23;101452.66;;;17.19;100.00
56402;BME280;42299;35.160;26.100;2022-12-07T06:55:45;101453.53;;;17.32;100.00
56402;BME280;42299;35.160;26.100;2022-12-07T06:57:06;101448.16;;;17.42;100.00
56402;BME280;42299;35.160;26.100;2022-12-07T06:58:29;101443.69;;;17.53;100.00
56402;BME280;42299;35.160;26.100;2022-12-07T06:59:52;101443.72;;;17.64;100.00
56402;BME280;42299;35.160;26.100;2022-12-07T07:01:16;101448.13;;;17.76;100.00
56402;BME280;42299;35.160;26.100;2022-12-07T07:02:39;101444.53;;;17.86;100.00
56402;BME280;42299;35.160;26.100;2022-12-07T07:04:00;101440.94;;;17.96;100.00
56402;BME280;42299;35.160;26.100;2022-12-07T07:05:23;101437.31;;;18.06;100.00
56402;BME280;42299;35.160;26.100;2022-12-07T07:06:45;101438.19;;;18.14;100.00
56402;BME280;42299;35.160;26.100;2022-12-07T07:08:08;101436.34;;;18.25;100.00
56402;BME280;42299;35.160;26.100;2022-12-07T07:09:31;101435.41;;;18.36;100.00
56402;BME280;42299;35.160;26.100;2022-12-07T07:10:53;101441.56;;;18.45;100.00
56402;BME280;42299;35.160;26.100;2022-12-07T07:12:15;101435.34;;;18.51;100.00
56402;BME280;42299;35.160;26.100;2022-12-07T07:13:38;101434.41;;;18.58;100.00